sensor_id;sensor_type;location;lat;lon;timestamp;P1;durP1;ratioP1;P2;durP2;ratioP2
62401;SDS011;48440;51.224;22.506;2024-03-08T00:00:22;78.88;;;31.23;;
62401;SDS011;48440;51.224;22.506;2024-03-08T00:02:48;70.85;;;31.73;;
62401;SDS011;48440;51.224;22.506;2024-03-08T00:05:15;68.07;;;30.85;;
62401;SDS011;48440;51.224;22.506;2024-03-08T00:07:41;78.43;;;32.20;;
62401;SDS011;48440;51.224;22.506;2024-03-08T00:10:09;78.40;;;31.67;;
62401;SDS011;48440;51.224;22.506;2024-03-08T00:12:39;66.57;;;30.92;;
62401;SDS011;48440;51.224;22.506;2024-03-08T00:15:11;64.75;;;31.58;;
62401;SDS011;48440;51.224;22.506;2024-03-08T00:17:41;66.03;;;29.95;;
62401;SDS011;48440;51.224;22.506;2024-03-08T00:20:07;70.28;;;29.65;;
62401;SDS011;48440;51.224;22.506;2024-03-08T00:22:36;62.60;;;28.13;;
62401;SDS011;48440;51.224;22.506;2024-03-08T00:25:05;62.10;;;29.08;;
62401;SDS011;48440;51.224;22.506;2024-03-08T00:27:33;62.55;;;28.60;;
62401;SDS011;48440;51.224;22.506;2024-03-08T00:29:59;63.83;;;30.23;;
62401;SDS011;48440;51.224;22.506;2024-03-08T00:32:25;65.13;;;27.85;;
62401;SDS011;48440;51.224;22.506;2024-03-08T00:34:52;56.38;;;27.38;;
62401;SDS011;48440;51.224;22.506;2024-03-08T00:37:19;69.47;;;29.10;;
62401;SDS011;48440;51.224;22.506;2024-03-08T00:39:45;65.50;;;27.98;;
62401;SDS011;48440;51.224;22.506;2024-03-08T00:42:10;63.70;;;26.98;;
62401;SDS011;48440;51.224;22.506;2024-03-08T00:44:35;60.80;;;26.58;;
62401;SDS011;48440;51.224;22.506;2024-03-08T00:47:01;62.67;;;27.92;;
62401;SDS011;48440;51.224;22.506;2024-03-08T00:49:27;59.80;;;26.95;;
62401;SDS011;48440;51.224;22.506;2024-03-08T00:51:52;65.25;;;26.88;;
62401;SDS011;48440;51.224;22.506;2024-03-08T00:54:18;60.35;;;27.15;;
62401;SDS011;48440;51.224;22.506;2024-03-08T00:56:43;53.08;;;26.40;;
62401;SDS011;48440;51.224;22.506;2024-03-08T00:59:10;62.17;;;27.25;;
62401;SDS011;48440;51.224;22.506;2024-03-08T01:01:36;60.10;;;27.80;;
62401;SDS011;48440;51.224;22.506;2024-03-08T01:04:01;55.47;;;28.08;;
62401;SDS011;48440;51.224;22.506;2024-03-08T01:06:27;57.30;;;27.25;;
62401;SDS011;48440;51.224;22.506;2024-03-08T01:08:52;62.35;;;27.10;;
62401;SDS011;48440;51.224;22.506;2024-03-08T01:11:18;61.55;;;27.63;;
62401;SDS011;48440;51.224;22.506;2024-03-08T01:13:43;59.65;;;25.70;;
62401;SDS011;48440;51.224;22.506;2024-03-08T01:16:12;57.08;;;25.67;;
62401;SDS011;48440;51.224;22.506;2024-03-08T01:18:37;54.60;;;25.67;;
62401;SDS011;48440;51.224;22.506;2024-03-08T01:21:03;55.80;;;26.38;;
62401;SDS011;48440;51.224;22.506;2024-03-08T01:23:29;54.17;;;25.67;;
62401;SDS011;48440;51.224;22.506;2024-03-08T01:25:54;54.08;;;24.02;;
62401;SDS011;48440;51.224;22.506;2024-03-08T01:28:25;54.08;;;24.77;;
62401;SDS011;48440;51.224;22.506;2024-03-08T01:30:51;49.47;;;23.88;;
62401;SDS011;48440;51.224;22.506;2024-03-08T01:33:23;47.72;;;22.25;;
62401;SDS011;48440;51.224;22.506;2024-03-08T01:35:50;48.92;;;24.73;;
62401;SDS011;48440;51.224;22.506;2024-03-08T01:38:19;52.17;;;23.00;;
62401;SDS011;48440;51.224;22.506;2024-03-08T01:40:46;46.90;;;22.20;;
62401;SDS011;48440;51.224;22.506;2024-03-08T01:45:48;46.53;;;22.05;;
62401;SDS011;48440;51.224;22.506;2024-03-08T01:48:16;41.88;;;19.85;;
62401;SDS011;48440;51.224;22.506;2024-03-08T01:50:43;46.38;;;22.08;;
62401;SDS011;48440;51.224;22.506;2024-03-08T01:53:09;47.35;;;21.67;;
62401;SDS011;48440;51.224;22.506;2024-03-08T01:55:36;48.08;;;20.85;;
62401;SDS011;48440;51.224;22.506;2024-03-08T01:58:04;47.47;;;23.63;;
62401;SDS011;48440;51.224;22.506;2024-03-08T02:00:30;51.72;;;24.90;;
62401;SDS011;48440;51.224;22.506;2024-03-08T02:02:57;48.90;;;23.63;;
62401;SDS011;48440;51.224;22.506;2024-03-08T02:05:23;55.42;;;23.58;;
62401;SDS011;48440;51.224;22.506;2024-03-08T02:07:49;48.17;;;21.30;;
62401;SDS011;48440;51.224;22.506;2024-03-08T02:10:15;49.53;;;22.58;;
62401;SDS011;48440;51.224;22.506;2024-03-08T02:12:40;54.40;;;23.77;;
62401;SDS011;48440;51.224;22.506;2024-03-08T02:15:06;49.83;;;22.33;;
62401;SDS011;48440;51.224;22.506;2024-03-08T02:17:32;55.63;;;23.77;;
62401;SDS011;48440;51.224;22.506;2024-03-08T02:20:00;48.75;;;23.13;;
62401;SDS011;48440;51.224;22.506;2024-03-08T02:22:30;55.88;;;24.35;;
62401;SDS011;48440;51.224;22.506;2024-03-08T02:24:58;60.55;;;24.92;;
62401;SDS011;48440;51.224;22.506;2024-03-08T02:27:26;51.83;;;23.25;;
62401;SDS011;48440;51.224;22.506;2024-03-08T02:29:54;56.20;;;25.13;;
62401;SDS011;48440;51.224;22.506;2024-03-08T02:32:21;54.15;;;23.65;;
62401;SDS011;48440;51.224;22.506;2024-03-08T02:34:49;54.53;;;24.73;;
62401;SDS011;48440;51.224;22.506;2024-03-08T02:37:15;54.85;;;24.73;;
62401;SDS011;48440;51.224;22.506;2024-03-08T02:39:41;51.10;;;23.33;;
62401;SDS011;48440;51.224;22.506;2024-03-08T02:42:07;48.20;;;21.23;;
62401;SDS011;48440;51.224;22.506;2024-03-08T02:44:32;50.33;;;22.23;;
62401;SDS011;48440;51.224;22.506;2024-03-08T02:46:58;43.95;;;21.45;;
62401;SDS011;48440;51.224;22.506;2024-03-08T02:49:25;44.53;;;20.77;;
62401;SDS011;48440;51.224;22.506;2024-03-08T02:51:53;47.60;;;21.17;;
62401;SDS011;48440;51.224;22.506;2024-03-08T02:54:19;38.17;;;20.00;;
62401;SDS011;48440;51.224;22.506;2024-03-08T02:56:45;46.67;;;23.13;;
62401;SDS011;48440;51.224;22.506;2024-03-08T02:59:12;46.83;;;21.77;;
62401;SDS011;48440;51.224;22.506;2024-03-08T03:01:38;55.15;;;24.73;;
62401;SDS011;48440;51.224;22.506;2024-03-08T03:04:03;54.75;;;24.67;;
62401;SDS011;48440;51.224;22.506;2024-03-08T03:06:29;48.78;;;23.33;;
62401;SDS011;48440;51.224;22.506;2024-03-08T03:08:54;51.05;;;23.55;;
62401;SDS011;48440;51.224;22.506;2024-03-08T03:11:22;53.55;;;23.70;;
62401;SDS011;48440;51.224;22.506;2024-03-08T03:13:48;45.13;;;21.30;;
62401;SDS011;48440;51.224;22.506;2024-03-08T03:16:17;46.28;;;21.67;;
62401;SDS011;48440;51.224;22.506;2024-03-08T03:18:44;45.67;;;22.05;;
62401;SDS011;48440;51.224;22.506;2024-03-08T03:21:10;46.25;;;22.17;;
62401;SDS011;48440;51.224;22.506;2024-03-08T03:23:37;48.97;;;21.48;;
62401;SDS011;48440;51.224;22.506;2024-03-08T03:26:05;46.30;;;22.02;;
62401;SDS011;48440;51.224;22.506;2024-03-08T03:28:32;43.55;;;19.90;;
62401;SDS011;48440;51.224;22.506;2024-03-08T03:30:58;41.58;;;20.63;;
62401;SDS011;48440;51.224;22.506;2024-03-08T03:33:24;46.42;;;21.73;;
62401;SDS011;48440;51.224;22.506;2024-03-08T03:35:49;53.08;;;22.90;;
62401;SDS011;48440;51.224;22.506;2024-03-08T03:38:17;50.92;;;21.17;;
62401;SDS011;48440;51.224;22.506;2024-03-08T03:40:42;48.75;;;22.05;;
62401;SDS011;48440;51.224;22.506;2024-03-08T03:43:10;47.95;;;22.00;;
62401;SDS011;48440;51.224;22.506;2024-03-08T03:45:36;43.42;;;20.60;;
62401;SDS011;48440;51.224;22.506;2024-03-08T03:48:02;43.50;;;22.55;;
62401;SDS011;48440;51.224;22.506;2024-03-08T03:50:37;50.97;;;20.70;;
62401;SDS011;48440;51.224;22.506;2024-03-08T03:53:03;46.67;;;21.05;;
62401;SDS011;48440;51.224;22.506;2024-03-08T03:55:33;48.15;;;22.13;;
62401;SDS011;48440;51.224;22.506;2024-03-08T03:57:58;44.88;;;21.13;;
62401;SDS011;48440;51.224;22.506;2024-03-08T04:00:26;45.97;;;22.40;;
62401;SDS011;48440;51.224;22.506;2024-03-08T04:02:52;47.85;;;19.73;;
62401;SDS011;48440;51.224;22.506;2024-03-08T04:05:18;52.03;;;23.27;;
62401;SDS011;48440;51.224;22.506;2024-03-08T04:07:43;47.03;;;23.40;;
62401;SDS011;48440;51.224;22.506;2024-03-08T04:10:10;48.80;;;23.05;;
62401;SDS011;48440;51.224;22.506;2024-03-08T04:12:36;49.78;;;22.58;;
62401;SDS011;48440;51.224;22.506;2024-03-08T04:15:02;50.55;;;22.83;;
62401;SDS011;48440;51.224;22.506;2024-03-08T04:17:28;57.72;;;24.55;;
62401;SDS011;48440;51.224;22.506;2024-03-08T04:19:53;56.42;;;24.13;;
62401;SDS011;48440;51.224;22.506;2024-03-08T04:22:19;52.42;;;23.92;;
62401;SDS011;48440;51.224;22.506;2024-03-08T04:24:45;52.30;;;24.83;;
62401;SDS011;48440;51.224;22.506;2024-03-08T04:27:11;52.20;;;24.55;;
62401;SDS011;48440;51.224;22.506;2024-03-08T04:29:37;53.13;;;24.30;;
62401;SDS011;48440;51.224;22.506;2024-03-08T04:32:03;54.28;;;24.60;;
62401;SDS011;48440;51.224;22.506;2024-03-08T04:34:30;54.22;;;24.92;;
62401;SDS011;48440;51.224;22.506;2024-03-08T04:36:59;54.30;;;25.27;;
62401;SDS011;48440;51.224;22.506;2024-03-08T04:39:25;56.20;;;25.60;;
62401;SDS011;48440;51.224;22.506;2024-03-08T04:41:54;51.42;;;23.83;;
62401;SDS011;48440;51.224;22.506;2024-03-08T04:44:23;52.03;;;23.40;;
62401;SDS011;48440;51.224;22.506;2024-03-08T04:46:49;49.95;;;24.23;;
62401;SDS011;48440;51.224;22.506;2024-03-08T04:49:15;45.50;;;22.27;;
62401;SDS011;48440;51.224;22.506;2024-03-08T04:51:40;46.05;;;22.33;;
62401;SDS011;48440;51.224;22.506;2024-03-08T04:54:06;42.42;;;21.90;;
62401;SDS011;48440;51.224;22.506;2024-03-08T04:56:31;47.40;;;22.75;;
62401;SDS011;48440;51.224;22.506;2024-03-08T04:58:57;52.17;;;24.90;;
62401;SDS011;48440;51.224;22.506;2024-03-08T05:01:22;47.58;;;21.85;;
62401;SDS011;48440;51.224;22.506;2024-03-08T05:03:48;53.40;;;22.98;;
62401;SDS011;48440;51.224;22.506;2024-03-08T05:06:15;60.53;;;25.20;;
62401;SDS011;48440;51.224;22.506;2024-03-08T05:08:41;48.80;;;24.80;;
62401;SDS011;48440;51.224;22.506;2024-03-08T05:11:06;48.35;;;24.92;;
62401;SDS011;48440;51.224;22.506;2024-03-08T05:13:32;53.80;;;24.60;;
62401;SDS011;48440;51.224;22.506;2024-03-08T05:15:59;52.35;;;25.15;;
62401;SDS011;48440;51.224;22.506;2024-03-08T05:18:25;55.35;;;24.52;;
62401;SDS011;48440;51.224;22.506;2024-03-08T05:20:51;47.03;;;24.63;;
62401;SDS011;48440;51.224;22.506;2024-03-08T05:23:17;55.47;;;23.75;;
62401;SDS011;48440;51.224;22.506;2024-03-08T05:25:44;46.38;;;23.63;;
62401;SDS011;48440;51.224;22.506;2024-03-08T05:28:12;57.33;;;24.58;;
62401;SDS011;48440;51.224;22.506;2024-03-08T05:30:38;48.63;;;23.60;;
62401;SDS011;48440;51.224;22.506;2024-03-08T05:33:04;53.55;;;24.75;;
62401;SDS011;48440;51.224;22.506;2024-03-08T05:35:29;57.47;;;26.13;;
62401;SDS011;48440;51.224;22.506;2024-03-08T05:37:55;51.85;;;24.52;;
62401;SDS011;48440;51.224;22.506;2024-03-08T05:40:21;53.35;;;25.42;;
62401;SDS011;48440;51.224;22.506;2024-03-08T05:42:46;57.10;;;27.33;;
62401;SDS011;48440;51.224;22.506;2024-03-08T05:45:12;58.47;;;25.27;;
62401;SDS011;48440;51.224;22.506;2024-03-08T05:47:38;47.78;;;24.75;;
62401;SDS011;48440;51.224;22.506;2024-03-08T05:50:04;55.08;;;25.08;;
62401;SDS011;48440;51.224;22.506;2024-03-08T05:52:32;59.25;;;26.10;;
62401;SDS011;48440;51.224;22.506;2024-03-08T05:54:58;50.17;;;25.63;;
62401;SDS011;48440;51.224;22.506;2024-03-08T05:57:23;50.83;;;23.95;;
62401;SDS011;48440;51.224;22.506;2024-03-08T05:59:49;51.08;;;24.00;;
62401;SDS011;48440;51.224;22.506;2024-03-08T06:02:14;51.08;;;25.27;;
62401;SDS011;48440;51.224;22.506;2024-03-08T06:04:44;49.00;;;23.52;;
62401;SDS011;48440;51.224;22.506;2024-03-08T06:07:12;47.03;;;23.83;;
62401;SDS011;48440;51.224;22.506;2024-03-08T06:09:38;49.22;;;25.77;;
62401;SDS011;48440;51.224;22.506;2024-03-08T06:12:04;48.38;;;24.17;;
62401;SDS011;48440;51.224;22.506;2024-03-08T06:14:31;51.42;;;25.38;;
62401;SDS011;48440;51.224;22.506;2024-03-08T06:16:57;54.25;;;25.33;;
62401;SDS011;48440;51.224;22.506;2024-03-08T06:19:22;47.90;;;24.67;;
62401;SDS011;48440;51.224;22.506;2024-03-08T06:21:48;53.13;;;24.38;;
62401;SDS011;48440;51.224;22.506;2024-03-08T06:24:13;46.50;;;24.42;;
62401;SDS011;48440;51.224;22.506;2024-03-08T06:26:40;45.05;;;23.92;;
62401;SDS011;48440;51.224;22.506;2024-03-08T06:29:06;46.13;;;22.48;;
62401;SDS011;48440;51.224;22.506;2024-03-08T06:31:34;46.30;;;24.23;;
62401;SDS011;48440;51.224;22.506;2024-03-08T06:33:59;51.83;;;24.00;;
62401;SDS011;48440;51.224;22.506;2024-03-08T06:36:25;46.22;;;23.73;;
62401;SDS011;48440;51.224;22.506;2024-03-08T06:38:51;45.78;;;23.00;;
62401;SDS011;48440;51.224;22.506;2024-03-08T06:41:17;43.20;;;22.27;;
62401;SDS011;48440;51.224;22.506;2024-03-08T06:43:43;46.67;;;21.17;;
62401;SDS011;48440;51.224;22.506;2024-03-08T06:46:09;46.25;;;22.90;;
62401;SDS011;48440;51.224;22.506;2024-03-08T06:48:37;49.13;;;21.45;;
62401;SDS011;48440;51.224;22.506;2024-03-08T06:51:05;47.13;;;21.65;;
62401;SDS011;48440;51.224;22.506;2024-03-08T06:53:31;44.00;;;21.73;;
62401;SDS011;48440;51.224;22.506;2024-03-08T06:55:57;43.42;;;22.13;;
62401;SDS011;48440;51.224;22.506;2024-03-08T06:58:23;43.10;;;21.30;;
62401;SDS011;48440;51.224;22.506;2024-03-08T07:00:49;45.58;;;21.08;;
62401;SDS011;48440;51.224;22.506;2024-03-08T07:03:17;42.13;;;21.55;;
62401;SDS011;48440;51.224;22.506;2024-03-08T07:05:43;45.90;;;22.63;;
62401;SDS011;48440;51.224;22.506;2024-03-08T07:08:08;42.45;;;22.05;;
62401;SDS011;48440;51.224;22.506;2024-03-08T07:10:34;43.13;;;22.00;;
62401;SDS011;48440;51.224;22.506;2024-03-08T07:13:00;41.67;;;21.70;;
62401;SDS011;48440;51.224;22.506;2024-03-08T07:15:27;42.72;;;21.40;;
62401;SDS011;48440;51.224;22.506;2024-03-08T07:17:53;41.70;;;21.58;;
62401;SDS011;48440;51.224;22.506;2024-03-08T07:20:19;35.35;;;19.65;;
62401;SDS011;48440;51.224;22.506;2024-03-08T07:22:45;35.38;;;19.35;;
62401;SDS011;48440;51.224;22.506;2024-03-08T07:25:17;44.88;;;21.27;;
62401;SDS011;48440;51.224;22.506;2024-03-08T07:27:52;40.30;;;21.02;;
62401;SDS011;48440;51.224;22.506;2024-03-08T07:30:19;39.22;;;21.02;;
62401;SDS011;48440;51.224;22.506;2024-03-08T07:33:05;36.58;;;20.58;;
62401;SDS011;48440;51.224;22.506;2024-03-08T07:35:32;36.58;;;20.65;;
62401;SDS011;48440;51.224;22.506;2024-03-08T07:37:58;36.40;;;20.65;;
62401;SDS011;48440;51.224;22.506;2024-03-08T07:40:25;39.10;;;19.48;;
62401;SDS011;48440;51.224;22.506;2024-03-08T07:42:51;31.65;;;18.90;;
62401;SDS011;48440;51.224;22.506;2024-03-08T07:45:16;29.27;;;16.85;;
62401;SDS011;48440;51.224;22.506;2024-03-08T07:47:42;33.17;;;17.13;;
62401;SDS011;48440;51.224;22.506;2024-03-08T07:50:08;32.45;;;18.17;;
62401;SDS011;48440;51.224;22.506;2024-03-08T07:52:34;29.50;;;16.80;;
62401;SDS011;48440;51.224;22.506;2024-03-08T07:55:00;30.83;;;17.08;;
62401;SDS011;48440;51.224;22.506;2024-03-08T07:57:26;31.15;;;18.08;;
62401;SDS011;48440;51.224;22.506;2024-03-08T07:59:51;29.70;;;17.27;;
62401;SDS011;48440;51.224;22.506;2024-03-08T08:02:17;35.72;;;18.52;;
62401;SDS011;48440;51.224;22.506;2024-03-08T08:04:42;33.08;;;18.48;;
62401;SDS011;48440;51.224;22.506;2024-03-08T08:07:10;32.05;;;17.15;;
62401;SDS011;48440;51.224;22.506;2024-03-08T08:09:36;24.98;;;16.15;;
62401;SDS011;48440;51.224;22.506;2024-03-08T08:12:02;26.02;;;15.35;;
62401;SDS011;48440;51.224;22.506;2024-03-08T08:14:29;26.05;;;15.88;;
62401;SDS011;48440;51.224;22.506;2024-03-08T08:16:55;24.55;;;15.73;;
62401;SDS011;48440;51.224;22.506;2024-03-08T08:19:22;28.77;;;15.77;;
62401;SDS011;48440;51.224;22.506;2024-03-08T08:21:48;25.98;;;16.10;;
62401;SDS011;48440;51.224;22.506;2024-03-08T08:24:14;30.00;;;17.23;;
62401;SDS011;48440;51.224;22.506;2024-03-08T08:26:40;30.50;;;17.60;;
62401;SDS011;48440;51.224;22.506;2024-03-08T08:29:06;32.97;;;17.02;;
62401;SDS011;48440;51.224;22.506;2024-03-08T08:31:32;28.23;;;16.58;;
62401;SDS011;48440;51.224;22.506;2024-03-08T08:33:58;26.65;;;15.95;;
62401;SDS011;48440;51.224;22.506;2024-03-08T08:36:24;28.25;;;16.67;;
62401;SDS011;48440;51.224;22.506;2024-03-08T08:38:50;29.92;;;17.02;;
62401;SDS011;48440;51.224;22.506;2024-03-08T08:41:15;28.02;;;16.48;;
62401;SDS011;48440;51.224;22.506;2024-03-08T08:43:42;30.85;;;17.73;;
62401;SDS011;48440;51.224;22.506;2024-03-08T08:46:09;32.53;;;19.83;;
62401;SDS011;48440;51.224;22.506;2024-03-08T08:48:39;35.35;;;20.10;;
62401;SDS011;48440;51.224;22.506;2024-03-08T08:51:06;31.13;;;18.58;;
62401;SDS011;48440;51.224;22.506;2024-03-08T08:53:37;29.90;;;16.80;;
62401;SDS011;48440;51.224;22.506;2024-03-08T08:56:05;29.40;;;18.60;;
62401;SDS011;48440;51.224;22.506;2024-03-08T08:58:33;26.60;;;16.92;;
62401;SDS011;48440;51.224;22.506;2024-03-08T09:00:58;29.80;;;18.20;;
62401;SDS011;48440;51.224;22.506;2024-03-08T09:03:30;31.63;;;18.25;;
62401;SDS011;48440;51.224;22.506;2024-03-08T09:06:08;35.92;;;17.27;;
62401;SDS011;48440;51.224;22.506;2024-03-08T09:09:18;33.25;;;18.75;;
62401;SDS011;48440;51.224;22.506;2024-03-08T09:12:06;33.17;;;18.35;;
62401;SDS011;48440;51.224;22.506;2024-03-08T09:14:31;28.85;;;16.88;;
62401;SDS011;48440;51.224;22.506;2024-03-08T09:16:57;31.70;;;18.40;;
62401;SDS011;48440;51.224;22.506;2024-03-08T09:19:22;31.35;;;17.42;;
62401;SDS011;48440;51.224;22.506;2024-03-08T09:21:51;31.27;;;17.02;;
62401;SDS011;48440;51.224;22.506;2024-03-08T09:24:16;31.83;;;18.13;;
62401;SDS011;48440;51.224;22.506;2024-03-08T09:26:42;32.53;;;19.35;;
62401;SDS011;48440;51.224;22.506;2024-03-08T09:29:08;31.17;;;17.98;;
62401;SDS011;48440;51.224;22.506;2024-03-08T09:31:35;33.67;;;20.17;;
62401;SDS011;48440;51.224;22.506;2024-03-08T09:34:03;33.80;;;19.00;;
62401;SDS011;48440;51.224;22.506;2024-03-08T09:36:29;32.90;;;19.63;;
62401;SDS011;48440;51.224;22.506;2024-03-08T09:38:57;29.80;;;18.48;;
62401;SDS011;48440;51.224;22.506;2024-03-08T09:44:46;30.92;;;18.80;;
62401;SDS011;48440;51.224;22.506;2024-03-08T09:47:15;33.33;;;19.02;;
62401;SDS011;48440;51.224;22.506;2024-03-08T09:49:41;31.13;;;17.67;;
62401;SDS011;48440;51.224;22.506;2024-03-08T09:52:13;30.30;;;16.85;;
62401;SDS011;48440;51.224;22.506;2024-03-08T09:55:06;27.70;;;16.83;;
62401;SDS011;48440;51.224;22.506;2024-03-08T09:57:32;33.65;;;16.48;;
62401;SDS011;48440;51.224;22.506;2024-03-08T09:59:59;28.75;;;16.88;;
62401;SDS011;48440;51.224;22.506;2024-03-08T10:02:32;24.58;;;15.73;;
62401;SDS011;48440;51.224;22.506;2024-03-08T10:04:59;25.20;;;14.77;;
62401;SDS011;48440;51.224;22.506;2024-03-08T10:07:28;28.65;;;14.90;;
62401;SDS011;48440;51.224;22.506;2024-03-08T10:09:53;22.15;;;13.35;;
62401;SDS011;48440;51.224;22.506;2024-03-08T10:12:19;23.58;;;13.77;;
62401;SDS011;48440;51.224;22.506;2024-03-08T10:14:45;21.98;;;14.00;;
62401;SDS011;48440;51.224;22.506;2024-03-08T10:17:11;23.13;;;14.55;;
62401;SDS011;48440;51.224;22.506;2024-03-08T10:19:37;20.20;;;13.40;;
62401;SDS011;48440;51.224;22.506;2024-03-08T10:22:04;20.58;;;13.48;;
62401;SDS011;48440;51.224;22.506;2024-03-08T10:24:30;23.20;;;13.65;;
62401;SDS011;48440;51.224;22.506;2024-03-08T10:26:59;23.20;;;13.98;;
62401;SDS011;48440;51.224;22.506;2024-03-08T10:29:32;21.75;;;13.43;;
62401;SDS011;48440;51.224;22.506;2024-03-08T10:31:58;26.00;;;14.70;;
62401;SDS011;48440;51.224;22.506;2024-03-08T10:34:24;22.48;;;13.70;;
62401;SDS011;48440;51.224;22.506;2024-03-08T10:36:50;26.00;;;13.88;;
62401;SDS011;48440;51.224;22.506;2024-03-08T10:39:23;22.70;;;13.48;;
62401;SDS011;48440;51.224;22.506;2024-03-08T10:41:52;26.17;;;13.52;;
62401;SDS011;48440;51.224;22.506;2024-03-08T10:50:00;19.83;;;11.93;;
62401;SDS011;48440;51.224;22.506;2024-03-08T10:52:52;22.75;;;13.45;;
62401;SDS011;48440;51.224;22.506;2024-03-08T10:55:25;24.67;;;13.55;;
62401;SDS011;48440;51.224;22.506;2024-03-08T10:58:16;21.58;;;12.57;;
62401;SDS011;48440;51.224;22.506;2024-03-08T11:00:45;23.45;;;12.63;;
62401;SDS011;48440;51.224;22.506;2024-03-08T11:03:43;20.65;;;12.23;;
62401;SDS011;48440;51.224;22.506;2024-03-08T11:06:18;21.55;;;12.77;;
62401;SDS011;48440;51.224;22.506;2024-03-08T11:08:48;21.05;;;12.32;;
62401;SDS011;48440;51.224;22.506;2024-03-08T11:11:28;18.65;;;11.85;;
62401;SDS011;48440;51.224;22.506;2024-03-08T11:13:59;20.48;;;12.75;;
62401;SDS011;48440;51.224;22.506;2024-03-08T11:19:06;21.90;;;12.07;;
62401;SDS011;48440;51.224;22.506;2024-03-08T11:22:51;22.33;;;13.18;;
62401;SDS011;48440;51.224;22.506;2024-03-08T11:24:49;22.63;;;13.30;;
62401;SDS011;48440;51.224;22.506;2024-03-08T11:27:14;22.27;;;13.32;;
62401;SDS011;48440;51.224;22.506;2024-03-08T11:29:46;23.55;;;14.00;;
62401;SDS011;48440;51.224;22.506;2024-03-08T11:32:27;26.02;;;14.18;;
62401;SDS011;48440;51.224;22.506;2024-03-08T11:34:54;22.00;;;12.27;;
62401;SDS011;48440;51.224;22.506;2024-03-08T11:37:20;23.63;;;12.63;;
62401;SDS011;48440;51.224;22.506;2024-03-08T11:39:49;22.45;;;13.38;;
62401;SDS011;48440;51.224;22.506;2024-03-08T11:42:16;22.67;;;12.43;;
62401;SDS011;48440;51.224;22.506;2024-03-08T11:44:43;23.15;;;13.98;;
62401;SDS011;48440;51.224;22.506;2024-03-08T11:47:12;23.27;;;14.88;;
62401;SDS011;48440;51.224;22.506;2024-03-08T11:49:39;23.25;;;14.27;;
62401;SDS011;48440;51.224;22.506;2024-03-08T11:52:10;25.33;;;14.43;;
62401;SDS011;48440;51.224;22.506;2024-03-08T11:54:38;23.10;;;13.55;;
62401;SDS011;48440;51.224;22.506;2024-03-08T11:57:04;26.98;;;14.85;;
62401;SDS011;48440;51.224;22.506;2024-03-08T11:59:30;24.17;;;15.02;;
62401;SDS011;48440;51.224;22.506;2024-03-08T12:01:59;24.15;;;14.23;;
62401;SDS011;48440;51.224;22.506;2024-03-08T12:04:29;28.83;;;15.60;;
62401;SDS011;48440;51.224;22.506;2024-03-08T12:06:56;23.50;;;14.88;;
62401;SDS011;48440;51.224;22.506;2024-03-08T12:09:24;28.30;;;16.25;;
62401;SDS011;48440;51.224;22.506;2024-03-08T12:11:50;25.48;;;15.18;;
62401;SDS011;48440;51.224;22.506;2024-03-08T12:14:16;25.15;;;14.50;;
62401;SDS011;48440;51.224;22.506;2024-03-08T12:16:42;24.60;;;14.55;;
62401;SDS011;48440;51.224;22.506;2024-03-08T12:19:08;24.92;;;14.80;;
62401;SDS011;48440;51.224;22.506;2024-03-08T12:21:35;26.40;;;15.63;;
62401;SDS011;48440;51.224;22.506;2024-03-08T12:24:08;26.33;;;15.60;;
62401;SDS011;48440;51.224;22.506;2024-03-08T12:26:38;23.00;;;13.23;;
62401;SDS011;48440;51.224;22.506;2024-03-08T12:32:04;22.83;;;13.35;;
62401;SDS011;48440;51.224;22.506;2024-03-08T12:34:30;25.77;;;13.43;;
62401;SDS011;48440;51.224;22.506;2024-03-08T12:36:57;21.58;;;12.45;;
62401;SDS011;48440;51.224;22.506;2024-03-08T12:39:23;20.40;;;11.55;;
62401;SDS011;48440;51.224;22.506;2024-03-08T12:41:52;21.45;;;12.75;;
62401;SDS011;48440;51.224;22.506;2024-03-08T12:44:19;21.95;;;12.43;;
62401;SDS011;48440;51.224;22.506;2024-03-08T12:46:46;20.55;;;12.63;;
62401;SDS011;48440;51.224;22.506;2024-03-08T12:49:13;23.02;;;13.00;;
62401;SDS011;48440;51.224;22.506;2024-03-08T12:51:42;20.10;;;12.18;;
62401;SDS011;48440;51.224;22.506;2024-03-08T12:54:08;21.25;;;12.77;;
62401;SDS011;48440;51.224;22.506;2024-03-08T12:56:34;23.42;;;12.73;;
62401;SDS011;48440;51.224;22.506;2024-03-08T12:59:02;23.42;;;13.05;;
62401;SDS011;48440;51.224;22.506;2024-03-08T13:01:29;27.85;;;12.45;;
62401;SDS011;48440;51.224;22.506;2024-03-08T13:03:57;20.48;;;11.82;;
62401;SDS011;48440;51.224;22.506;2024-03-08T13:06:23;21.80;;;12.88;;
62401;SDS011;48440;51.224;22.506;2024-03-08T13:08:53;25.17;;;13.10;;
62401;SDS011;48440;51.224;22.506;2024-03-08T13:11:20;19.58;;;12.20;;
62401;SDS011;48440;51.224;22.506;2024-03-08T13:13:46;23.08;;;13.07;;
62401;SDS011;48440;51.224;22.506;2024-03-08T13:16:12;22.83;;;12.95;;
62401;SDS011;48440;51.224;22.506;2024-03-08T13:18:42;25.85;;;13.38;;
62401;SDS011;48440;51.224;22.506;2024-03-08T13:21:07;23.58;;;13.30;;
62401;SDS011;48440;51.224;22.506;2024-03-08T13:23:34;25.25;;;13.30;;
62401;SDS011;48440;51.224;22.506;2024-03-08T13:26:09;25.27;;;13.18;;
62401;SDS011;48440;51.224;22.506;2024-03-08T13:28:46;23.35;;;12.38;;
62401;SDS011;48440;51.224;22.506;2024-03-08T13:31:18;23.33;;;12.60;;
62401;SDS011;48440;51.224;22.506;2024-03-08T13:33:45;23.90;;;13.23;;
62401;SDS011;48440;51.224;22.506;2024-03-08T13:36:12;25.45;;;13.18;;
62401;SDS011;48440;51.224;22.506;2024-03-08T13:38:44;25.90;;;13.23;;
62401;SDS011;48440;51.224;22.506;2024-03-08T13:41:11;25.10;;;12.63;;
62401;SDS011;48440;51.224;22.506;2024-03-08T13:43:39;20.42;;;12.25;;
62401;SDS011;48440;51.224;22.506;2024-03-08T13:46:08;23.08;;;12.77;;
62401;SDS011;48440;51.224;22.506;2024-03-08T13:48:35;22.80;;;12.23;;
62401;SDS011;48440;51.224;22.506;2024-03-08T13:51:02;22.20;;;12.52;;
62401;SDS011;48440;51.224;22.506;2024-03-08T13:53:29;25.45;;;13.20;;
62401;SDS011;48440;51.224;22.506;2024-03-08T13:55:55;23.88;;;12.48;;
62401;SDS011;48440;51.224;22.506;2024-03-08T13:58:22;23.77;;;13.60;;
62401;SDS011;48440;51.224;22.506;2024-03-08T14:00:47;25.35;;;13.52;;
62401;SDS011;48440;51.224;22.506;2024-03-08T14:03:20;27.33;;;15.00;;
62401;SDS011;48440;51.224;22.506;2024-03-08T14:05:49;26.27;;;13.57;;
62401;SDS011;48440;51.224;22.506;2024-03-08T14:08:15;26.70;;;13.68;;
62401;SDS011;48440;51.224;22.506;2024-03-08T14:10:42;25.27;;;13.18;;
62401;SDS011;48440;51.224;22.506;2024-03-08T14:13:15;24.08;;;13.48;;
62401;SDS011;48440;51.224;22.506;2024-03-08T14:15:49;22.65;;;13.15;;
62401;SDS011;48440;51.224;22.506;2024-03-08T14:18:15;21.83;;;12.70;;
62401;SDS011;48440;51.224;22.506;2024-03-08T14:20:43;21.80;;;12.70;;
62401;SDS011;48440;51.224;22.506;2024-03-08T14:23:09;21.75;;;13.00;;
62401;SDS011;48440;51.224;22.506;2024-03-08T14:25:35;24.20;;;12.48;;
62401;SDS011;48440;51.224;22.506;2024-03-08T14:28:00;21.83;;;12.73;;